sensor_id;sensor_type;location;lat;lon;timestamp;pressure;altitude;pressure_sealevel;temperature;humidity
56176;BME280;63065;51.082;17.016;2022-10-03T00:02:23;100209.19;;;10.89;55.53
56176;BME280;63065;51.082;17.016;2022-10-03T00:04:44;100209.70;;;12.78;53.16
56176;BME280;63065;51.082;17.016;2022-10-03T00:07:08;100212.85;;;11.82;54.77
56176;BME280;63065;51.082;17.016;2022-10-03T00:09:40;100215.28;;;12.76;53.05
56176;BME280;63065;51.082;17.016;2022-10-03T00:12:02;100213.48;;;13.07;51.77
56176;BME280;63065;51.082;17.016;2022-10-03T00:14:20;100215.05;;;12.35;52.56
56176;BME280;63065;51.082;17.016;2022-10-03T00:16:46;100212.33;;;12.56;52.72
56176;BME280;63065;51.082;17.016;2022-10-03T00:19:15;100207.83;;;12.39;52.61
56176;BME280;63065;51.082;17.016;2022-10-03T00:21:45;100206.26;;;13.36;51.27
56176;BME280;63065;51.082;17.016;2022-10-03T00:24:08;100209.29;;;12.33;52.09
56176;BME280;63065;51.082;17.016;2022-10-03T00:26:33;100213.52;;;12.76;52.06
56176;BME280;63065;51.082;17.016;2022-10-03T00:31:18;100216.93;;;12.69;51.69
56176;BME280;63065;51.082;17.016;2022-10-03T00:33:53;100220.02;;;11.78;54.04
56176;BME280;63065;51.082;17.016;2022-10-03T00:36:13;100218.85;;;12.00;53.95
56176;BME280;63065;51.082;17.016;2022-10-03T00:41:06;100215.65;;;12.53;53.06
56176;BME280;63065;51.082;17.016;2022-10-03T00:46:04;100218.29;;;12.14;53.32
56176;BME280;63065;51.082;17.016;2022-10-03T00:50:52;100214.35;;;12.44;52.84
56176;BME280;63065;51.082;17.016;2022-10-03T00:53:20;100218.86;;;12.31;53.38
56176;BME280;63065;51.082;17.016;2022-10-03T00:55:44;100217.78;;;11.90;53.81
56176;BME280;63065;51.082;17.016;2022-10-03T00:58:08;100217.73;;;12.32;53.52
56176;BME280;63065;51.082;17.016;2022-10-03T01:00:27;100215.91;;;11.82;53.96
56176;BME280;63065;51.082;17.016;2022-10-03T01:05:24;100213.43;;;12.56;52.91
56176;BME280;63065;51.082;17.016;2022-10-03T01:07:57;100220.41;;;12.72;51.95
56176;BME280;63065;51.082;17.016;2022-10-03T01:10:13;100218.22;;;10.82;55.79
56176;BME280;63065;51.082;17.016;2022-10-03T01:12:45;100216.88;;;11.71;54.42
56176;BME280;63065;51.082;17.016;2022-10-03T01:15:07;100220.60;;;12.13;53.72
56176;BME280;63065;51.082;17.016;2022-10-03T01:17:30;100223.24;;;11.83;53.89
56176;BME280;63065;51.082;17.016;2022-10-03T01:20:07;100218.94;;;12.86;51.96
56176;BME280;63065;51.082;17.016;2022-10-03T01:22:28;100220.76;;;11.92;53.16
56176;BME280;63065;51.082;17.016;2022-10-03T01:24:50;100220.80;;;12.70;51.90
56176;BME280;63065;51.082;17.016;2022-10-03T01:27:07;100222.03;;;12.29;53.04
56176;BME280;63065;51.082;17.016;2022-10-03T01:29:42;100220.99;;;11.92;52.99
56176;BME280;63065;51.082;17.016;2022-10-03T01:32:00;100225.35;;;12.86;51.81
56176;BME280;63065;51.082;17.016;2022-10-03T01:34:27;100225.21;;;12.47;52.67
56176;BME280;63065;51.082;17.016;2022-10-03T01:37:02;100224.96;;;12.75;51.85
56176;BME280;63065;51.082;17.016;2022-10-03T01:39:20;100231.05;;;11.42;53.99
56176;BME280;63065;51.082;17.016;2022-10-03T01:41:47;100233.65;;;11.40;54.05
56176;BME280;63065;51.082;17.016;2022-10-03T01:44:11;100235.96;;;11.15;55.38
56176;BME280;63065;51.082;17.016;2022-10-03T01:46:36;100233.45;;;11.59;55.52
56176;BME280;63065;51.082;17.016;2022-10-03T01:49:01;100234.87;;;11.52;54.63
56176;BME280;63065;51.082;17.016;2022-10-03T01:51:25;100237.63;;;11.53;55.23
56176;BME280;63065;51.082;17.016;2022-10-03T01:53:57;100229.94;;;12.11;53.35
56176;BME280;63065;51.082;17.016;2022-10-03T01:56:18;100229.37;;;12.35;52.70
56176;BME280;63065;51.082;17.016;2022-10-03T01:58:47;100232.88;;;12.64;51.97
56176;BME280;63065;51.082;17.016;2022-10-03T02:01:08;100224.32;;;12.70;51.49
56176;BME280;63065;51.082;17.016;2022-10-03T02:03:33;100228.02;;;12.39;52.49
56176;BME280;63065;51.082;17.016;2022-10-03T02:05:59;100228.97;;;11.89;52.95
56176;BME280;63065;51.082;17.016;2022-10-03T02:08:27;100227.94;;;12.35;52.80
56176;BME280;63065;51.082;17.016;2022-10-03T02:10:51;100230.85;;;11.98;53.34
56176;BME280;63065;51.082;17.016;2022-10-03T02:13:13;100231.55;;;11.77;53.35
56176;BME280;63065;51.082;17.016;2022-10-03T02:15:47;100235.41;;;11.45;54.05
56176;BME280;63065;51.082;17.016;2022-10-03T02:18:11;100234.87;;;12.19;53.41
56176;BME280;63065;51.082;17.016;2022-10-03T02:20:33;100235.43;;;12.09;53.05
56176;BME280;63065;51.082;17.016;2022-10-03T02:22:54;100237.84;;;12.49;52.11
56176;BME280;63065;51.082;17.016;2022-10-03T02:25:25;100235.30;;;12.50;52.55
56176;BME280;63065;51.082;17.016;2022-10-03T02:30:14;100244.87;;;12.35;52.66
56176;BME280;63065;51.082;17.016;2022-10-03T02:35:12;100250.50;;;13.25;50.48
56176;BME280;63065;51.082;17.016;2022-10-03T02:37:35;100251.11;;;12.82;50.86
56176;BME280;63065;51.082;17.016;2022-10-03T02:40:05;100262.42;;;11.19;54.37
56176;BME280;63065;51.082;17.016;2022-10-03T02:42:29;100259.00;;;11.27;55.29
56176;BME280;63065;51.082;17.016;2022-10-03T03:01:53;100270.33;;;11.63;54.20
56176;BME280;63065;51.082;17.016;2022-10-03T03:04:21;100266.57;;;12.48;52.67
56176;BME280;63065;51.082;17.016;2022-10-03T03:06:44;100268.44;;;12.04;52.66
56176;BME280;63065;51.082;17.016;2022-10-03T03:11:41;100267.61;;;13.14;51.00
56176;BME280;63065;51.082;17.016;2022-10-03T03:18:48;100273.75;;;11.48;54.28
56176;BME280;63065;51.082;17.016;2022-10-03T03:21:16;100278.72;;;11.44;54.70
56176;BME280;63065;51.082;17.016;2022-10-03T03:23:44;100278.80;;;11.88;54.53
56176;BME280;63065;51.082;17.016;2022-10-03T03:26:15;100280.47;;;11.90;54.27
56176;BME280;63065;51.082;17.016;2022-10-03T03:28:32;100279.10;;;11.52;54.24
56176;BME280;63065;51.082;17.016;2022-10-03T03:30:57;100281.76;;;11.76;54.60
56176;BME280;63065;51.082;17.016;2022-10-03T03:33:24;100277.54;;;12.40;52.72
56176;BME280;63065;51.082;17.016;2022-10-03T03:35:51;100277.81;;;12.13;52.90
56176;BME280;63065;51.082;17.016;2022-10-03T03:38:18;100285.13;;;12.77;52.46
56176;BME280;63065;51.082;17.016;2022-10-03T03:40:39;100281.38;;;11.93;53.32
56176;BME280;63065;51.082;17.016;2022-10-03T03:43:11;100283.97;;;12.36;52.10
56176;BME280;63065;51.082;17.016;2022-10-03T03:45:31;100289.69;;;12.34;52.28
56176;BME280;63065;51.082;17.016;2022-10-03T03:48:01;100287.28;;;11.97;54.01
56176;BME280;63065;51.082;17.016;2022-10-03T03:50:28;100286.82;;;11.49;54.04
56176;BME280;63065;51.082;17.016;2022-10-03T03:52:49;100286.72;;;12.35;53.52
56176;BME280;63065;51.082;17.016;2022-10-03T03:55:17;100282.17;;;12.75;51.94
56176;BME280;63065;51.082;17.016;2022-10-03T03:57:42;100286.89;;;12.59;52.80
56176;BME280;63065;51.082;17.016;2022-10-03T04:00:05;100288.24;;;12.24;52.77
56176;BME280;63065;51.082;17.016;2022-10-03T04:02:31;100293.83;;;12.37;51.99
56176;BME280;63065;51.082;17.016;2022-10-03T04:05:00;100297.06;;;13.03;52.07
56176;BME280;63065;51.082;17.016;2022-10-03T04:07:25;100294.84;;;12.45;52.56
56176;BME280;63065;51.082;17.016;2022-10-03T04:09:52;100295.64;;;11.60;53.26
56176;BME280;63065;51.082;17.016;2022-10-03T04:12:12;100303.64;;;11.71;53.21
56176;BME280;63065;51.082;17.016;2022-10-03T04:14:44;100301.13;;;12.51;52.58
56176;BME280;63065;51.082;17.016;2022-10-03T04:17:08;100302.97;;;12.70;52.45
56176;BME280;63065;51.082;17.016;2022-10-03T04:19:30;100304.64;;;11.46;54.32
56176;BME280;63065;51.082;17.016;2022-10-03T04:24:26;100301.65;;;12.12;53.11
56176;BME280;63065;51.082;17.016;2022-10-03T04:26:49;100301.09;;;11.81;53.62
56176;BME280;63065;51.082;17.016;2022-10-03T04:31:37;100296.37;;;11.17;54.14
56176;BME280;63065;51.082;17.016;2022-10-03T04:34:05;100297.25;;;12.26;52.85
56176;BME280;63065;51.082;17.016;2022-10-03T04:36:35;100295.16;;;12.84;51.81
56176;BME280;63065;51.082;17.016;2022-10-03T04:38:55;100292.62;;;12.25;52.16
56176;BME280;63065;51.082;17.016;2022-10-03T04:41:20;100289.18;;;12.06;51.55
56176;BME280;63065;51.082;17.016;2022-10-03T04:43:41;100283.39;;;13.10;50.71
56176;BME280;63065;51.082;17.016;2022-10-03T04:46:15;100289.66;;;12.88;50.35
56176;BME280;63065;51.082;17.016;2022-10-03T04:48:35;100291.27;;;11.34;53.57
56176;BME280;63065;51.082;17.016;2022-10-03T04:51:03;100288.71;;;11.95;51.90
56176;BME280;63065;51.082;17.016;2022-10-03T04:53:28;100300.63;;;11.79;51.78
56176;BME280;63065;51.082;17.016;2022-10-03T04:55:48;100289.76;;;11.51;52.23
56176;BME280;63065;51.082;17.016;2022-10-03T04:58:23;100292.06;;;11.39;52.79
56176;BME280;63065;51.082;17.016;2022-10-03T05:00:48;100287.11;;;11.97;52.01
56176;BME280;63065;51.082;17.016;2022-10-03T05:03:11;100286.12;;;12.23;51.14
56176;BME280;63065;51.082;17.016;2022-10-03T05:07:59;100285.70;;;12.48;51.65
56176;BME280;63065;51.082;17.016;2022-10-03T05:10:27;100289.27;;;12.47;51.27
56176;BME280;63065;51.082;17.016;2022-10-03T05:12:49;100290.49;;;12.91;50.76
56176;BME280;63065;51.082;17.016;2022-10-03T05:15:19;100287.36;;;12.36;51.74
56176;BME280;63065;51.082;17.016;2022-10-03T05:17:43;100289.22;;;12.33;52.49
56176;BME280;63065;51.082;17.016;2022-10-03T05:22:39;100298.58;;;12.28;52.81
56176;BME280;63065;51.082;17.016;2022-10-03T05:24:57;100300.43;;;12.40;53.67
56176;BME280;63065;51.082;17.016;2022-10-03T05:27:23;100296.60;;;11.93;53.59
56176;BME280;63065;51.082;17.016;2022-10-03T05:29:54;100301.35;;;11.35;54.92
56176;BME280;63065;51.082;17.016;2022-10-03T05:32:19;100297.69;;;12.48;53.24
56176;BME280;63065;51.082;17.016;2022-10-03T05:34:45;100300.17;;;11.95;54.38
56176;BME280;63065;51.082;17.016;2022-10-03T05:39:27;100299.04;;;12.72;52.42
56176;BME280;63065;51.082;17.016;2022-10-03T05:41:52;100300.40;;;12.13;52.83
56176;BME280;63065;51.082;17.016;2022-10-03T05:44:18;100305.56;;;11.54;54.22
56176;BME280;63065;51.082;17.016;2022-10-03T05:46:55;100298.48;;;12.33;53.33
56176;BME280;63065;51.082;17.016;2022-10-03T05:49:17;100299.36;;;12.12;53.99
56176;BME280;63065;51.082;17.016;2022-10-03T05:51:45;100307.02;;;11.96;53.76
56176;BME280;63065;51.082;17.016;2022-10-03T05:56:36;100306.24;;;12.12;53.06
56176;BME280;63065;51.082;17.016;2022-10-03T06:03:55;100310.27;;;12.66;51.80
56176;BME280;63065;51.082;17.016;2022-10-03T06:06:13;100307.89;;;12.58;51.97
56176;BME280;63065;51.082;17.016;2022-10-03T06:08:43;100316.57;;;12.33;52.92
56176;BME280;63065;51.082;17.016;2022-10-03T06:11:03;100324.05;;;11.71;54.87
56176;BME280;63065;51.082;17.016;2022-10-03T06:13:36;100328.65;;;10.92;57.12
56176;BME280;63065;51.082;17.016;2022-10-03T06:15:55;100320.42;;;12.49;54.65
56176;BME280;63065;51.082;17.016;2022-10-03T06:18:28;100322.18;;;12.34;54.36
56176;BME280;63065;51.082;17.016;2022-10-03T06:20:56;100328.03;;;12.17;54.57
56176;BME280;63065;51.082;17.016;2022-10-03T06:30:24;100327.06;;;11.26;55.86
56176;BME280;63065;51.082;17.016;2022-10-03T06:42:43;100337.66;;;11.54;54.69
56176;BME280;63065;51.082;17.016;2022-10-03T06:47:30;100347.94;;;12.68;54.58
56176;BME280;63065;51.082;17.016;2022-10-03T06:52:24;100354.26;;;13.07;52.74
56176;BME280;63065;51.082;17.016;2022-10-03T06:57:16;100355.09;;;12.02;55.25
56176;BME280;63065;51.082;17.016;2022-10-03T07:02:05;100360.76;;;11.91;55.61
56176;BME280;63065;51.082;17.016;2022-10-03T07:06:57;100365.68;;;11.42;56.60
56176;BME280;63065;51.082;17.016;2022-10-03T07:19:11;100367.00;;;11.84;56.74
56176;BME280;63065;51.082;17.016;2022-10-03T07:21:30;100362.75;;;12.19;55.96
56176;BME280;63065;51.082;17.016;2022-10-03T07:23:56;100362.48;;;12.36;54.83
56176;BME280;63065;51.082;17.016;2022-10-03T07:31:10;100370.96;;;11.67;57.02
56176;BME280;63065;51.082;17.016;2022-10-03T07:33:43;100369.96;;;11.86;56.23
56176;BME280;63065;51.082;17.016;2022-10-03T07:41:00;100384.40;;;12.38;54.87
56176;BME280;63065;51.082;17.016;2022-10-03T07:43:25;100383.46;;;11.51;56.98
56176;BME280;63065;51.082;17.016;2022-10-03T07:45:40;100380.68;;;11.61;56.70
56176;BME280;63065;51.082;17.016;2022-10-03T07:53:09;100389.13;;;12.83;53.52
56176;BME280;63065;51.082;17.016;2022-10-03T07:55:27;100386.91;;;13.32;53.51
56176;BME280;63065;51.082;17.016;2022-10-03T07:58:01;100394.86;;;11.78;56.45
56176;BME280;63065;51.082;17.016;2022-10-03T08:00:18;100405.05;;;11.20;60.10
56176;BME280;63065;51.082;17.016;2022-10-03T08:05:16;100408.74;;;13.11;54.84
56176;BME280;63065;51.082;17.016;2022-10-03T08:07:48;100412.10;;;12.50;55.61
56176;BME280;63065;51.082;17.016;2022-10-03T08:10:06;100408.24;;;12.25;56.39
56176;BME280;63065;51.082;17.016;2022-10-03T08:12:32;100408.66;;;12.18;57.34
56176;BME280;63065;51.082;17.016;2022-10-03T08:14:54;100411.85;;;10.13;60.04
56176;BME280;63065;51.082;17.016;2022-10-03T08:17:31;100412.35;;;11.42;60.13
56176;BME280;63065;51.082;17.016;2022-10-03T08:22:10;100415.27;;;11.83;58.03
56176;BME280;63065;51.082;17.016;2022-10-03T08:27:12;100410.21;;;11.97;56.83
56176;BME280;63065;51.082;17.016;2022-10-03T08:29:32;100419.51;;;12.02;57.62
56176;BME280;63065;51.082;17.016;2022-10-03T08:32:08;100410.93;;;12.85;55.79
56176;BME280;63065;51.082;17.016;2022-10-03T08:39:10;100423.02;;;11.15;58.21
56176;BME280;63065;51.082;17.016;2022-10-03T08:48:57;100426.44;;;10.82;60.29
56176;BME280;63065;51.082;17.016;2022-10-03T08:56:09;100431.61;;;10.83;58.98
56176;BME280;63065;51.082;17.016;2022-10-03T09:13:12;100438.52;;;11.29;58.01
56176;BME280;63065;51.082;17.016;2022-10-03T09:20:30;100443.55;;;13.34;54.14
56176;BME280;63065;51.082;17.016;2022-10-03T09:25:19;100444.86;;;11.99;56.88
56176;BME280;63065;51.082;17.016;2022-10-03T09:27:45;100444.54;;;13.46;55.29
56176;BME280;63065;51.082;17.016;2022-10-03T09:32:41;100441.85;;;12.81;55.26
56176;BME280;63065;51.082;17.016;2022-10-03T09:37:33;100452.37;;;13.45;53.57
56176;BME280;63065;51.082;17.016;2022-10-03T09:44:47;100456.68;;;12.85;53.94
56176;BME280;63065;51.082;17.016;2022-10-03T09:52:07;100469.21;;;13.45;52.25
56176;BME280;63065;51.082;17.016;2022-10-03T09:54:33;100457.27;;;14.80;50.11
56176;BME280;63065;51.082;17.016;2022-10-03T09:56:55;100448.27;;;13.95;51.18
56176;BME280;63065;51.082;17.016;2022-10-03T09:59:23;100455.93;;;14.23;49.76
56176;BME280;63065;51.082;17.016;2022-10-03T10:01:41;100454.82;;;14.82;49.05
56176;BME280;63065;51.082;17.016;2022-10-03T10:06:37;100460.96;;;14.53;49.61
56176;BME280;63065;51.082;17.016;2022-10-03T10:11:28;100465.22;;;13.37;51.02
56176;BME280;63065;51.082;17.016;2022-10-03T10:23:38;100458.49;;;14.05;49.33
56176;BME280;63065;51.082;17.016;2022-10-03T10:28:36;100468.55;;;13.34;50.98
56176;BME280;63065;51.082;17.016;2022-10-03T11:09:48;100482.96;;;13.13;55.11
56176;BME280;63065;51.082;17.016;2022-10-03T11:21:55;100475.73;;;14.18;53.17
56176;BME280;63065;51.082;17.016;2022-10-03T11:36:29;100491.08;;;12.65;55.86
56176;BME280;63065;51.082;17.016;2022-10-03T11:38:52;100487.36;;;12.50;56.22
56176;BME280;63065;51.082;17.016;2022-10-03T11:41:18;100491.14;;;12.79;56.38
56176;BME280;63065;51.082;17.016;2022-10-03T11:46:13;100492.65;;;12.70;56.44
56176;BME280;63065;51.082;17.016;2022-10-03T11:48:37;100498.45;;;12.00;57.91
56176;BME280;63065;51.082;17.016;2022-10-03T11:50:53;100502.87;;;12.96;56.16
56176;BME280;63065;51.082;17.016;2022-10-03T11:55:46;100490.48;;;13.82;54.14
56176;BME280;63065;51.082;17.016;2022-10-03T11:58:24;100498.52;;;13.17;56.48
56176;BME280;63065;51.082;17.016;2022-10-03T12:00:37;100485.05;;;13.78;54.82
56176;BME280;63065;51.082;17.016;2022-10-03T12:03:11;100489.35;;;12.88;56.34
56176;BME280;63065;51.082;17.016;2022-10-03T12:05:38;100486.18;;;13.79;55.46
56176;BME280;63065;51.082;17.016;2022-10-03T12:08:01;100494.33;;;13.66;56.09
56176;BME280;63065;51.082;17.016;2022-10-03T12:10:28;100492.04;;;13.69;56.21
56176;BME280;63065;51.082;17.016;2022-10-03T12:12:46;100497.20;;;13.19;57.37
56176;BME280;63065;51.082;17.016;2022-10-03T12:15:23;100494.40;;;12.53;57.57
56176;BME280;63065;51.082;17.016;2022-10-03T12:17:38;100497.02;;;12.22;58.75
56176;BME280;63065;51.082;17.016;2022-10-03T12:20:04;100498.04;;;11.59;61.28
56176;BME280;63065;51.082;17.016;2022-10-03T12:22:35;100491.64;;;13.00;58.72
56176;BME280;63065;51.082;17.016;2022-10-03T12:24:53;100491.18;;;13.63;56.96
56176;BME280;63065;51.082;17.016;2022-10-03T12:27:26;100501.23;;;12.62;59.41
56176;BME280;63065;51.082;17.016;2022-10-03T12:29:50;100504.64;;;12.87;58.83
56176;BME280;63065;51.082;17.016;2022-10-03T12:32:16;100501.83;;;13.62;56.77
56176;BME280;63065;51.082;17.016;2022-10-03T12:34:38;100504.85;;;12.49;58.92
56176;BME280;63065;51.082;17.016;2022-10-03T12:37:13;100502.90;;;13.79;56.15
56176;BME280;63065;51.082;17.016;2022-10-03T12:39:33;100507.89;;;13.90;55.52
56176;BME280;63065;51.082;17.016;2022-10-03T12:42:01;100509.10;;;13.31;56.63
56176;BME280;63065;51.082;17.016;2022-10-03T12:44:28;100507.19;;;13.99;56.84
56176;BME280;63065;51.082;17.016;2022-10-03T12:46:49;100504.66;;;12.54;58.38
56176;BME280;63065;51.082;17.016;2022-10-03T12:49:13;100509.71;;;13.44;57.80
56176;BME280;63065;51.082;17.016;2022-10-03T12:51:46;100510.52;;;12.90;58.09
56176;BME280;63065;51.082;17.016;2022-10-03T12:54:07;100504.78;;;14.44;56.29
56176;BME280;63065;51.082;17.016;2022-10-03T12:56:32;100503.76;;;14.39;55.08
56176;BME280;63065;51.082;17.016;2022-10-03T12:58:56;100506.03;;;13.16;56.95
56176;BME280;63065;51.082;17.016;2022-10-03T13:01:25;100507.05;;;13.15;58.01
56176;BME280;63065;51.082;17.016;2022-10-03T13:03:49;100511.43;;;12.99;59.11
56176;BME280;63065;51.082;17.016;2022-10-03T13:06:24;100504.25;;;13.80;57.64
56176;BME280;63065;51.082;17.016;2022-10-03T13:08:42;100510.74;;;12.87;58.40
56176;BME280;63065;51.082;17.016;2022-10-03T13:11:07;100508.37;;;14.13;56.62
56176;BME280;63065;51.082;17.016;2022-10-03T13:13:30;100504.70;;;14.40;56.50
56176;BME280;63065;51.082;17.016;2022-10-03T13:15:59;100510.53;;;13.93;55.73
56176;BME280;63065;51.082;17.016;2022-10-03T13:18:28;100514.95;;;14.11;55.45
56176;BME280;63065;51.082;17.016;2022-10-03T13:20:49;100519.48;;;14.25;56.39
56176;BME280;63065;51.082;17.016;2022-10-03T13:23:12;100527.20;;;13.31;57.51
56176;BME280;63065;51.082;17.016;2022-10-03T13:25:38;100521.01;;;14.32;55.64
56176;BME280;63065;51.082;17.016;2022-10-03T13:28:06;100529.26;;;13.81;56.57
56176;BME280;63065;51.082;17.016;2022-10-03T13:30:29;100526.34;;;14.42;54.72
56176;BME280;63065;51.082;17.016;2022-10-03T13:32:55;100523.40;;;14.28;54.67
56176;BME280;63065;51.082;17.016;2022-10-03T13:35:22;100534.94;;;12.92;56.30
56176;BME280;63065;51.082;17.016;2022-10-03T13:40:11;100521.47;;;13.84;55.51
56176;BME280;63065;51.082;17.016;2022-10-03T13:42:37;100524.53;;;13.21;55.71
56176;BME280;63065;51.082;17.016;2022-10-03T13:45:01;100523.05;;;12.25;57.79
56176;BME280;63065;51.082;17.016;2022-10-03T13:47:40;100525.40;;;13.22;56.84
56176;BME280;63065;51.082;17.016;2022-10-03T13:49:52;100527.35;;;12.46;58.03
56176;BME280;63065;51.082;17.016;2022-10-03T13:52:19;100522.80;;;12.79;57.48
56176;BME280;63065;51.082;17.016;2022-10-03T13:57:13;100524.64;;;13.44;56.27
56176;BME280;63065;51.082;17.016;2022-10-03T13:59:42;100523.36;;;13.66;56.23
56176;BME280;63065;51.082;17.016;2022-10-03T14:02:05;100525.13;;;12.43;56.60
56176;BME280;63065;51.082;17.016;2022-10-03T14:04:35;100526.83;;;12.45;57.57
56176;BME280;63065;51.082;17.016;2022-10-03T14:06:54;100520.37;;;11.61;59.12
56176;BME280;63065;51.082;17.016;2022-10-03T14:09:30;100518.21;;;12.15;58.75
56176;BME280;63065;51.082;17.016;2022-10-03T14:11:46;100527.71;;;12.58;57.34
56176;BME280;63065;51.082;17.016;2022-10-03T14:16:34;100522.47;;;13.15;56.58
56176;BME280;63065;51.082;17.016;2022-10-03T14:19:03;100530.07;;;13.71;55.95
56176;BME280;63065;51.082;17.016;2022-10-03T14:21:35;100524.26;;;13.60;55.53
56176;BME280;63065;51.082;17.016;2022-10-03T14:23:55;100529.45;;;12.44;57.24
56176;BME280;63065;51.082;17.016;2022-10-03T14:26:19;100531.92;;;12.51;57.57
56176;BME280;63065;51.082;17.016;2022-10-03T14:28:45;100539.99;;;12.58;57.48
56176;BME280;63065;51.082;17.016;2022-10-03T14:31:11;100542.05;;;11.61;57.89
56176;BME280;63065;51.082;17.016;2022-10-03T14:33:37;100536.33;;;12.48;56.77
56176;BME280;63065;51.082;17.016;2022-10-03T14:36:09;100540.38;;;12.84;57.15
56176;BME280;63065;51.082;17.016;2022-10-03T14:38:32;100537.05;;;12.51;56.75
56176;BME280;63065;51.082;17.016;2022-10-03T14:40:50;100539.51;;;12.06;56.11
56176;BME280;63065;51.082;17.016;2022-10-03T14:43:26;100541.48;;;12.46;56.09
56176;BME280;63065;51.082;17.016;2022-10-03T14:45:44;100534.42;;;13.63;55.21
56176;BME280;63065;51.082;17.016;2022-10-03T14:48:10;100542.07;;;12.02;55.21
56176;BME280;63065;51.082;17.016;2022-10-03T14:50:32;100536.64;;;12.68;55.47
56176;BME280;63065;51.082;17.016;2022-10-03T14:52:59;100537.43;;;13.29;54.44
56176;BME280;63065;51.082;17.016;2022-10-03T14:55:24;100539.83;;;12.30;54.82
56176;BME280;63065;51.082;17.016;2022-10-03T14:57:51;100537.89;;;13.74;53.25
56176;BME280;63065;51.082;17.016;2022-10-03T15:00:23;100539.07;;;13.71;53.45
56176;BME280;63065;51.082;17.016;2022-10-03T15:02:45;100530.48;;;13.75;52.78
56176;BME280;63065;51.082;17.016;2022-10-03T15:05:10;100528.80;;;14.42;53.10
56176;BME280;63065;51.082;17.016;2022-10-03T15:07:33;100530.19;;;14.64;51.18
56176;BME280;63065;51.082;17.016;2022-10-03T15:09:56;100530.42;;;14.43;51.78
56176;BME280;63065;51.082;17.016;2022-10-03T15:12:24;100530.63;;;13.92;52.01
56176;BME280;63065;51.082;17.016;2022-10-03T15:14:53;100536.36;;;13.38;52.47
56176;BME280;63065;51.082;17.016;2022-10-03T15:17:18;100538.26;;;13.68;52.89
56176;BME280;63065;51.082;17.016;2022-10-03T15:19:41;100532.94;;;13.92;52.85
56176;BME280;63065;51.082;17.016;2022-10-03T15:22:11;100530.20;;;14.24;52.23
56176;BME280;63065;51.082;17.016;2022-10-03T15:24:33;100534.26;;;14.34;51.94
56176;BME280;63065;51.082;17.016;2022-10-03T15:27:01;100535.53;;;15.15;50.39
56176;BME280;63065;51.082;17.016;2022-10-03T15:29:23;100536.56;;;14.95;50.48
56176;BME280;63065;51.082;17.016;2022-10-03T15:31:48;100535.99;;;14.66;51.72
56176;BME280;63065;51.082;17.016;2022-10-03T15:34:16;100537.52;;;14.59;51.28
56176;BME280;63065;51.082;17.016;2022-10-03T15:36:40;100538.74;;;14.88;50.64
56176;BME280;63065;51.082;17.016;2022-10-03T15:39:06;100540.43;;;14.37;50.46
56176;BME280;63065;51.082;17.016;2022-10-03T15:41:33;100544.48;;;13.24;50.33
56176;BME280;63065;51.082;17.016;2022-10-03T15:43:58;100544.04;;;13.00;51.86
56176;BME280;63065;51.082;17.016;2022-10-03T15:46:29;100538.95;;;13.93;51.23
56176;BME280;63065;51.082;17.016;2022-10-03T15:48:51;100539.16;;;13.16;50.92
56176;BME280;63065;51.082;17.016;2022-10-03T15:51:17;100543.69;;;13.62;51.68
56176;BME280;63065;51.082;17.016;2022-10-03T15:53:37;100541.10;;;12.82;52.08
56176;BME280;63065;51.082;17.016;2022-10-03T15:56:09;100552.11;;;12.90;51.88
56176;BME280;63065;51.082;17.016;2022-10-03T15:58:29;100553.70;;;13.03;51.69
56176;BME280;63065;51.082;17.016;2022-10-03T16:00:59;100555.73;;;12.98;51.37
56176;BME280;63065;51.082;17.016;2022-10-03T16:03:25;100557.53;;;12.24;51.45
56176;BME280;63065;51.082;17.016;2022-10-03T16:05:54;100560.18;;;13.34;51.54
56176;BME280;63065;51.082;17.016;2022-10-03T16:08:15;100565.89;;;11.99;52.55
56176;BME280;63065;51.082;17.016;2022-10-03T16:10:37;100565.17;;;12.52;52.56
56176;BME280;63065;51.082;17.016;2022-10-03T16:13:07;100567.00;;;13.19;51.89
56176;BME280;63065;51.082;17.016;2022-10-03T16:15:37;100577.79;;;13.10;51.94
56176;BME280;63065;51.082;17.016;2022-10-03T16:17:55;100579.58;;;13.69;50.50
56176;BME280;63065;51.082;17.016;2022-10-03T16:20:23;100582.08;;;12.76;51.41
56176;BME280;63065;51.082;17.016;2022-10-03T16:22:46;100582.58;;;12.45;52.55
56176;BME280;63065;51.082;17.016;2022-10-03T16:25:14;100578.11;;;11.73;52.41
56176;BME280;63065;51.082;17.016;2022-10-03T16:27:38;100580.31;;;12.17;53.05
56176;BME280;63065;51.082;17.016;2022-10-03T16:32:28;100582.30;;;12.55;52.41
56176;BME280;63065;51.082;17.016;2022-10-03T16:34:52;100576.32;;;12.70;52.35
56176;BME280;63065;51.082;17.016;2022-10-03T16:37:20;100581.00;;;12.90;51.79
56176;BME280;63065;51.082;17.016;2022-10-03T16:39:49;100581.47;;;12.65;51.16
56176;BME280;63065;51.082;17.016;2022-10-03T16:42:12;100583.56;;;13.16;51.39
56176;BME280;63065;51.082;17.016;2022-10-03T16:44:38;100583.10;;;12.28;51.65
56176;BME280;63065;51.082;17.016;2022-10-03T16:47:01;100581.30;;;13.18;51.35
56176;BME280;63065;51.082;17.016;2022-10-03T16:49:35;100575.01;;;13.45;51.50
56176;BME280;63065;51.082;17.016;2022-10-03T16:51:58;100578.83;;;13.49;50.75
56176;BME280;63065;51.082;17.016;2022-10-03T16:54:18;100578.21;;;13.14;50.65
56176;BME280;63065;51.082;17.016;2022-10-03T16:56:44;100578.14;;;14.45;49.50
56176;BME280;63065;51.082;17.016;2022-10-03T16:59:12;100578.04;;;14.10;49.91